Flight Track Log - Related Links

Times and Time Zones

All times are in EDT time to prevent confusion due to time zone crossing. See the N3663H flight status page for this flight to view local times or setup timezone preferences in your user account.

Time Position Orientation Groundspeed Altitude Reporting Facility
EDT Latitude Longitude Course Direction KTS MPH feet Rate Location/Type
Sat 03:00:49 PM 42.7000 -71.1333 270° West 80 92 800  Level KA90
Sat 03:01:19 PM 42.7000 -71.1500 270° West 84 97 1,300 938 Climbing KA90
Sat 03:02:25 PM 42.6833 -71.1833 236° Southwest 91 105 2,300 884 Climbing KA90
Sat 03:03:28 PM 42.6667 -71.2000 216° Southwest 98 113 3,200 850 Climbing KA90
Sat 03:04:25 PM 42.6500 -71.2167 216° Southwest 79 91 4,000 769 Climbing KA90
Sat 03:05:25 PM 42.6167 -71.2333 200° South 89 102 4,700 871 Climbing KA90
Sat 03:06:29 PM 42.6000 -71.2667 236° Southwest 92 106 5,800 945 Climbing KA90
Sat 03:07:32 PM 42.5833 -71.2833 216° Southwest 88 101 6,700 927 Climbing KA90
Sat 03:08:32 PM 42.5500 -71.3000 200° South 85 98 7,700 650 Climbing KA90
Sat 03:09:32 PM 42.5333 -71.3167 216° Southwest 124 143 8,000 150 Climbing KA90
Sat 03:10:32 PM 42.5167 -71.3500 236° Southwest 128 147 8,000  Level KA90
Sat 03:11:32 PM 42.4833 -71.3833 216° Southwest 132 152 8,000  Level KA90
Sat 03:12:30 PM 42.4500 -71.4000 200° South 138 159 8,000  Level KA90
Sat 03:13:29 PM 42.4167 -71.4333 216° Southwest 133 153 8,000  Level KA90
Sat 03:14:32 PM 42.3833 -71.4667 216° Southwest 133 153 8,000  Level KA90
Sat 03:15:26 PM 42.3667 -71.4833 216° Southwest 129 148 8,000  Level KA90
Sat 03:16:09 PM 42.3342 -71.5133 214° Southwest 130 150 8,000  Level Boston Center
Sat 03:16:58 PM 42.3092 -71.5361 214° Southwest 132 152 8,000  Level Boston Center
Sat 03:17:58 PM 42.2803 -71.5647 216° Southwest 129 148 8,000  Level Boston Center
Sat 03:18:59 PM 42.2578 -71.6042 232° Southwest 132 152 8,000  Level Boston Center
Sat 03:20:00 PM 42.2350 -71.6408 230° Southwest 133 153 8,000  Level Boston Center
Sat 03:21:00 PM 42.2125 -71.6806 233° Southwest 136 157 8,000  Level Boston Center
Sat 03:22:01 PM 42.1856 -71.7172 225° Southwest 133 153 8,000  Level Boston Center
Sat 03:23:02 PM 42.1608 -71.7567 230° Southwest 132 152 8,000  Level Boston Center
Sat 03:24:09 PM 42.1361 -71.7989 232° Southwest 131 151 8,000  Level Boston Center
Sat 03:25:10 PM 42.1111 -71.8328 225° Southwest 127 146 8,000  Level Boston Center
Sat 03:26:10 PM 42.0864 -71.8694 228° Southwest 131 151 8,000  Level Boston Center
Sat 03:27:11 PM 42.0617 -71.9117 232° Southwest 135 155 8,000  Level Boston Center
Sat 03:28:12 PM 42.0389 -71.9453 228° Southwest 131 151 8,000  Level Boston Center
Sat 03:29:06 PM 42.0161 -71.9792 228° Southwest 130 150 8,000  Level Boston Center
Sat 03:30:13 PM 41.9892 -72.0211 229° Southwest 131 151 8,000  Level Boston Center
Sat 03:31:14 PM 41.9664 -72.0575 230° Southwest 129 148 8,000  Level Boston Center
Sat 03:32:15 PM 41.9433 -72.0911 227° Southwest 124 143 8,000  Level Boston Center
Sat 03:33:22 PM 41.9122 -72.1333 225° Southwest 130 150 8,000  Level Boston Center
Sat 03:34:22 PM 41.8811 -72.1586 211° Southwest 131 151 8,000  Level Boston Center
Sat 03:35:23 PM 41.8519 -72.1864 215° Southwest 130 150 8,000  Level Boston Center
Sat 03:36:24 PM 41.8186 -72.2144 212° Southwest 135 155 8,000  Level Boston Center
Sat 03:37:24 PM 41.7897 -72.2481 221° Southwest 138 159 8,000  Level Boston Center
Sat 03:38:25 PM 41.7606 -72.2786 218° Southwest 135 155 8,000  Level Boston Center
Sat 03:39:20 PM 41.7314 -72.3011 210° Southwest 133 153 8,000  Level Boston Center
Sat 03:40:21 PM 41.7022 -72.3289 215° Southwest 129 148 8,000  Level Boston Center
Sat 03:41:21 PM 41.6731 -72.3594 218° Southwest 129 148 8,000  Level Boston Center
Sat 03:42:22 PM 41.6439 -72.3844 213° Southwest 128 147 8,000  Level Boston Center
Sat 03:43:23 PM 41.6106 -72.4150 214° Southwest 131 151 8,000  Level Boston Center
Sat 03:44:17 PM 41.5856 -72.4400 217° Southwest 134 154 8,000  Level Boston Center
Sat 03:45:58 PM 41.5333 -72.4833 212° Southwest 137 158 8,000  Level New York TRACON
Sat 03:46:58 PM 41.5000 -72.5167 217° Southwest 137 158 8,000  Level New York TRACON
Sat 03:47:58 PM 41.4667 -72.5500 217° Southwest 135 155 8,000  Level New York TRACON
Sat 03:48:58 PM 41.4500 -72.5667 217° Southwest 133 153 8,000 -200 Level New York TRACON
Sat 03:49:58 PM 41.4167 -72.6000 217° Southwest 140 161 7,600 -550 Descending New York TRACON
Sat 03:50:58 PM 41.3833 -72.6333 217° Southwest 147 169 6,900 -700 Descending New York TRACON
Sat 03:51:58 PM 41.3500 -72.6833 228° Southwest 149 171 6,200 -450 Descending New York TRACON
Sat 03:52:58 PM 41.3500 -72.7333 270° West 145 167 6,000 -100 Descending New York TRACON
Sat 03:53:58 PM 41.3500 -72.7833 270° West 131 151 6,000 -350 Level New York TRACON
Sat 03:54:58 PM 41.3333 -72.8333 246° West 145 167 5,300 -650 Descending New York TRACON
Sat 03:55:58 PM 41.3167 -72.8833 246° West 152 175 4,700 -645 Descending New York TRACON
Sat 03:56:59 PM 41.3167 -72.9333 270° West 154 177 4,000 -368 Descending New York TRACON
Sat 03:57:52 PM 41.3000 -72.9833 246° West 140 161 4,000  Level New York TRACON
Sat 03:58:52 PM 41.3000 -73.0333 270° West 129 148 4,000  Level New York TRACON
Sat 03:59:52 PM 41.2833 -73.0833 246° West 128 147 4,000  Level New York TRACON
Sat 04:00:52 PM 41.2667 -73.1167 236° Southwest 125 144 4,000  Level New York TRACON
Sat 04:01:52 PM 41.2667 -73.1667 270° West 125 144 4,000  Level New York TRACON
Sat 04:02:52 PM 41.2500 -73.2000 236° Southwest 124 143 4,000  Level New York TRACON
Sat 04:03:52 PM 41.2500 -73.2500 270° West 128 147 4,000  Level New York TRACON
Sat 04:04:52 PM 41.2333 -73.3000 246° West 128 147 4,000  Level New York TRACON
Sat 04:05:52 PM 41.2333 -73.3500 270° West 127 146 4,000  Level New York TRACON
Sat 04:06:52 PM 41.2167 -73.3833 236° Southwest 127 146 4,000  Level New York TRACON
Sat 04:07:52 PM 41.2167 -73.4333 270° West 124 143 4,000 -200 Level New York TRACON
Sat 04:08:52 PM 41.2000 -73.4833 246° West 142 163 3,600 -550 Descending New York TRACON
Sat 04:09:52 PM 41.2000 -73.5333 270° West 153 176 2,900 -650 Descending New York TRACON
Sat 04:10:52 PM 41.1833 -73.5833 246° West 154 177 2,300 -600 Descending New York TRACON

Login

Don't have an account? Register now (free) for customized features, flight alerts, and more!